createdAt,value
2022-09-21T00:01:27.926Z,3.00
2022-09-21T00:03:58.230Z,3.83
2022-09-21T00:06:28.273Z,3.65
2022-09-21T00:08:57.084Z,2.37
2022-09-21T00:11:27.697Z,1.45
2022-09-21T00:13:58.125Z,2.08
2022-09-21T00:16:27.984Z,2.20
2022-09-21T00:18:55.899Z,2.85
2022-09-21T00:21:24.415Z,1.67
2022-09-21T00:23:54.297Z,3.83
2022-09-21T00:26:24.585Z,1.85
2022-09-21T00:28:55.358Z,1.73
2022-09-21T00:31:24.101Z,3.28
2022-09-21T00:33:53.714Z,2.65
2022-09-21T00:36:24.657Z,1.87
2022-09-21T00:38:54.589Z,1.37
2022-09-21T00:41:22.483Z,2.20
2022-09-21T00:44:10.942Z,1.77
2022-09-21T00:46:40.112Z,2.83
2022-09-21T00:49:09.900Z,2.90
2022-09-21T00:51:38.620Z,1.77
2022-09-21T00:54:12.251Z,1.75
2022-09-21T00:56:40.266Z,3.72
2022-09-21T00:59:10.589Z,2.50
2022-09-21T01:01:38.628Z,2.62
2022-09-21T01:04:07.221Z,2.22
2022-09-21T01:06:39.690Z,1.50
2022-09-21T01:09:08.083Z,2.83
2022-09-21T01:11:46.160Z,2.03
2022-09-21T01:14:27.459Z,2.35
2022-09-21T01:17:07.852Z,2.30
2022-09-21T01:20:02.578Z,2.37
2022-09-21T01:22:44.606Z,3.20
2022-09-21T01:25:28.616Z,1.58
2022-09-21T01:28:18.447Z,2.40
2022-09-21T01:30:50.807Z,2.25
2022-09-21T01:33:27.338Z,0.80
2022-09-21T01:35:58.739Z,2.45
2022-09-21T01:38:33.013Z,1.40
2022-09-21T01:41:04.656Z,3.25
2022-09-21T01:43:36.479Z,3.05
2022-09-21T01:46:11.453Z,2.60
2022-09-21T01:48:42.983Z,2.40
2022-09-21T01:51:14.934Z,3.12
2022-09-21T01:53:47.206Z,2.05
2022-09-21T01:56:21.426Z,1.98
2022-09-21T01:58:58.628Z,5.57
2022-09-21T02:01:31.709Z,2.92
2022-09-21T02:04:06.070Z,1.35
2022-09-21T02:06:34.014Z,1.40
2022-09-21T02:09:02.320Z,2.60
2022-09-21T02:11:30.206Z,4.12
2022-09-21T02:13:58.067Z,1.77
2022-09-21T02:16:37.045Z,1.33
2022-09-21T02:19:12.360Z,7.75
2022-09-21T02:21:50.186Z,1.37
2022-09-21T02:24:26.121Z,3.25
2022-09-21T02:27:00.676Z,3.08
2022-09-21T02:29:36.517Z,2.53
2022-09-21T02:32:10.126Z,1.33
2022-09-21T02:34:46.397Z,2.97
2022-09-21T02:37:24.347Z,2.65
2022-09-21T02:40:00.533Z,2.70
2022-09-21T02:42:33.725Z,1.25
2022-09-21T02:45:08.532Z,3.42
2022-09-21T02:47:46.051Z,2.95
2022-09-21T02:50:21.278Z,4.00
2022-09-21T02:52:50.107Z,1.83
2022-09-21T02:55:19.000Z,1.45
2022-09-21T02:57:48.929Z,2.60
2022-09-21T03:00:18.221Z,1.50
2022-09-21T03:02:47.695Z,1.73
2022-09-21T03:05:16.245Z,1.40
2022-09-21T03:07:44.414Z,1.60
2022-09-21T03:10:12.453Z,1.10
2022-09-21T03:12:40.446Z,1.50
2022-09-21T03:15:09.021Z,1.35
2022-09-21T03:17:36.911Z,2.03
2022-09-21T03:20:07.964Z,3.37
2022-09-21T03:22:36.091Z,1.70
2022-09-21T03:25:04.319Z,1.42
2022-09-21T03:27:32.448Z,1.73
2022-09-21T03:30:02.393Z,1.30
2022-09-21T03:32:30.643Z,2.00
2022-09-21T03:34:58.484Z,1.42
2022-09-21T03:37:28.015Z,3.22
2022-09-21T03:39:56.051Z,2.47
2022-09-21T03:42:23.991Z,1.20
2022-09-21T03:44:52.454Z,1.62
2022-09-21T03:47:20.710Z,2.12
2022-09-21T03:49:48.563Z,2.95
2022-09-21T03:52:16.998Z,1.33
2022-09-21T03:54:46.764Z,2.62
2022-09-21T03:57:14.712Z,1.83
2022-09-21T03:59:43.736Z,2.70
2022-09-21T04:02:11.694Z,1.42
2022-09-21T04:04:39.843Z,2.28
2022-09-21T04:07:07.679Z,1.92
2022-09-21T04:09:35.602Z,2.30
2022-09-21T04:12:05.356Z,1.65
2022-09-21T04:14:33.652Z,2.05
2022-09-21T04:17:01.546Z,1.27
2022-09-21T04:19:29.885Z,2.25
2022-09-21T04:21:57.903Z,1.48
2022-09-21T04:24:26.172Z,2.83
2022-09-21T04:26:54.320Z,5.57
2022-09-21T04:29:23.556Z,2.28
2022-09-21T04:31:51.415Z,1.70
2022-09-21T04:34:19.694Z,1.45
2022-09-21T04:36:47.576Z,2.08
2022-09-21T04:39:15.434Z,3.97
2022-09-21T04:41:43.780Z,2.30
2022-09-21T04:44:11.700Z,1.40
2022-09-21T04:46:40.978Z,2.05
2022-09-21T04:49:10.669Z,2.37
2022-09-21T04:51:39.005Z,1.70
2022-09-21T04:54:07.074Z,2.20
2022-09-21T04:56:35.586Z,1.42
2022-09-21T04:59:03.582Z,3.55
2022-09-21T05:01:31.643Z,3.03
2022-09-21T05:04:02.448Z,1.60
2022-09-21T05:06:31.024Z,2.45
2022-09-21T05:09:16.698Z,3.05
2022-09-21T05:11:44.906Z,3.50
2022-09-21T05:14:13.073Z,3.72
2022-09-21T05:16:40.962Z,7.53
2022-09-21T05:19:10.148Z,2.33
2022-09-21T05:21:38.285Z,1.62
2022-09-21T05:24:06.547Z,2.60
2022-09-21T05:26:34.414Z,1.85
2022-09-21T05:29:03.191Z,2.37
2022-09-21T05:31:41.704Z,4.55
2022-09-21T05:34:36.598Z,1.85
2022-09-21T05:37:11.132Z,1.50
2022-09-21T05:39:39.876Z,1.85
2022-09-21T05:42:10.245Z,2.05
2022-09-21T05:44:38.746Z,1.73
2022-09-21T05:47:18.602Z,6.25
2022-09-21T05:49:56.795Z,2.10
2022-09-21T05:52:35.775Z,2.30
2022-09-21T05:55:10.880Z,3.03
2022-09-21T05:57:47.639Z,2.97
2022-09-21T06:00:18.948Z,3.55
2022-09-21T06:02:58.650Z,2.65
2022-09-21T06:05:28.259Z,2.67
2022-09-21T06:07:56.406Z,3.05
2022-09-21T06:10:25.158Z,2.87
2022-09-21T06:12:53.056Z,2.17
2022-09-21T06:15:21.332Z,3.45
2022-09-21T06:17:49.192Z,3.62
2022-09-21T06:20:17.279Z,2.95
2022-09-21T06:22:46.742Z,3.45
2022-09-21T06:25:14.747Z,3.45
2022-09-21T06:27:42.687Z,3.83
2022-09-21T06:30:11.590Z,3.47
2022-09-21T06:32:39.697Z,2.67
2022-09-21T06:35:08.193Z,4.68
2022-09-21T06:37:38.343Z,2.80
2022-09-21T06:40:09.584Z,3.42
2022-09-21T06:42:37.801Z,4.10
2022-09-21T06:45:06.622Z,5.40
2022-09-21T06:47:34.495Z,6.35
2022-09-21T06:50:03.323Z,6.37
2022-09-21T06:52:31.225Z,4.45
2022-09-21T06:54:59.145Z,4.93
2022-09-21T06:57:28.652Z,6.53
2022-09-21T06:59:56.530Z,7.40
2022-09-21T07:02:24.415Z,3.35
2022-09-21T07:04:52.591Z,4.60
2022-09-21T07:07:20.456Z,4.70
2022-09-21T07:12:37.884Z,3.28
2022-09-21T07:15:07.814Z,4.10
2022-09-21T07:17:37.734Z,4.35
2022-09-21T07:20:08.276Z,3.25
2022-09-21T07:22:36.921Z,7.05
2022-09-21T07:25:06.245Z,5.43
2022-09-21T07:27:35.415Z,6.82
2022-09-21T07:30:05.453Z,5.60
2022-09-21T07:32:33.393Z,6.45
2022-09-21T07:35:01.697Z,6.10
2022-09-21T07:37:32.087Z,7.15
2022-09-21T07:40:02.835Z,5.07
2022-09-21T07:42:30.976Z,3.75
2022-09-21T07:45:04.009Z,5.00
2022-09-21T07:47:36.545Z,5.32
2022-09-21T07:50:04.736Z,6.28
2022-09-21T07:52:32.880Z,4.95
2022-09-21T07:55:00.760Z,7.05
2022-09-21T07:57:46.178Z,4.43
2022-09-21T08:00:15.311Z,6.20
2022-09-21T08:02:47.645Z,7.53
2022-09-21T08:05:16.324Z,6.85
2022-09-21T08:07:44.468Z,3.30
2022-09-21T08:10:13.076Z,6.53
2022-09-21T08:12:41.082Z,9.85
2022-09-21T08:15:30.642Z,8.98
2022-09-21T08:18:00.830Z,5.20
2022-09-21T08:20:29.162Z,6.93
2022-09-21T08:22:57.228Z,7.40
2022-09-21T08:25:25.231Z,5.57
2022-09-21T08:27:53.430Z,6.60
2022-09-21T08:30:21.473Z,4.87
2022-09-21T08:32:51.933Z,6.40
2022-09-21T08:35:21.591Z,8.45
2022-09-21T08:37:51.088Z,4.47
2022-09-21T08:40:20.731Z,5.60
2022-09-21T08:42:57.147Z,6.65
2022-09-21T08:45:33.044Z,4.22
2022-09-21T08:48:06.378Z,5.40
2022-09-21T08:50:40.401Z,4.05
2022-09-21T08:53:15.598Z,4.80
2022-09-21T08:55:43.569Z,4.82
2022-09-21T08:58:24.110Z,4.93
2022-09-21T09:01:07.313Z,7.00
2022-09-21T09:03:52.000Z,7.62
2022-09-21T09:06:30.890Z,4.75
2022-09-21T09:09:33.963Z,2.35
2022-09-21T09:12:18.378Z,4.62
2022-09-21T09:15:05.654Z,2.67
2022-09-21T09:17:44.552Z,1.67
2022-09-21T09:20:17.565Z,3.30
2022-09-21T09:22:49.941Z,5.03
2022-09-21T09:25:21.824Z,1.50
2022-09-21T09:27:54.188Z,2.85
2022-09-21T09:30:25.461Z,4.87
2022-09-21T09:32:59.305Z,4.03
2022-09-21T09:35:30.183Z,3.15
2022-09-21T09:38:06.955Z,4.62
2022-09-21T09:40:53.654Z,4.53
2022-09-21T09:43:36.162Z,3.20
2022-09-21T09:46:13.634Z,1.80
2022-09-21T09:49:11.638Z,2.53
2022-09-21T09:51:40.553Z,2.25
2022-09-21T09:54:15.142Z,4.35
2022-09-21T09:56:43.901Z,3.97
2022-09-21T09:59:20.207Z,3.95
2022-09-21T10:02:00.898Z,3.12
2022-09-21T10:04:29.114Z,1.80
2022-09-21T10:06:57.118Z,3.45
2022-09-21T10:09:29.174Z,2.75
2022-09-21T10:12:01.476Z,1.10
2022-09-21T10:14:35.118Z,2.05
2022-09-21T10:17:07.334Z,1.00
2022-09-21T10:19:35.534Z,0.93
2022-09-21T10:22:05.833Z,1.48
2022-09-21T10:24:38.312Z,1.67
2022-09-21T10:27:10.451Z,1.10
2022-09-21T10:29:43.402Z,1.12
2022-09-21T10:32:24.048Z,3.58
2022-09-21T10:35:18.102Z,2.00
2022-09-21T10:37:49.257Z,1.95
2022-09-21T10:40:27.458Z,1.48
2022-09-21T10:42:58.551Z,2.42
2022-09-21T10:45:28.028Z,3.75
2022-09-21T10:47:58.290Z,2.20
2022-09-21T10:50:29.631Z,1.70
2022-09-21T10:53:02.883Z,3.20
2022-09-21T10:55:33.076Z,1.15
2022-09-21T10:58:01.595Z,2.80
2022-09-21T11:00:43.498Z,3.70
2022-09-21T11:03:43.029Z,5.40
2022-09-21T11:06:16.074Z,2.08
2022-09-21T11:08:49.880Z,1.12
2022-09-21T11:11:39.505Z,1.05
2022-09-21T11:14:15.927Z,1.58
2022-09-21T11:16:51.571Z,1.20
2022-09-21T11:19:30.028Z,1.35
2022-09-21T11:22:04.068Z,2.30
2022-09-21T11:24:40.149Z,1.25
2022-09-21T11:27:16.740Z,0.73
2022-09-21T11:29:54.828Z,1.80
2022-09-21T11:32:50.448Z,2.22
2022-09-21T11:35:27.204Z,0.70
2022-09-21T11:38:06.355Z,1.48
2022-09-21T11:40:54.415Z,2.37
2022-09-21T11:43:39.471Z,1.00
2022-09-21T11:46:18.622Z,0.43
2022-09-21T11:48:59.953Z,0.93
2022-09-21T11:51:57.302Z,2.67
2022-09-21T11:54:52.405Z,1.15
2022-09-21T11:57:28.349Z,0.28
2022-09-21T12:00:06.973Z,0.40
2022-09-21T12:03:05.428Z,1.85
2022-09-21T12:05:38.664Z,1.25
2022-09-21T12:08:37.802Z,0.20
2022-09-21T12:11:14.079Z,2.25
2022-09-21T12:13:55.751Z,3.12
2022-09-21T12:16:35.116Z,0.80
2022-09-21T12:19:10.595Z,1.42
2022-09-21T12:21:42.540Z,0.52
2022-09-21T12:24:17.898Z,0.40
2022-09-21T12:26:51.190Z,0.20
2022-09-21T12:29:25.260Z,0.75
2022-09-21T12:32:00.744Z,0.70
2022-09-21T12:34:35.365Z,1.08
2022-09-21T12:37:11.245Z,0.75
2022-09-21T12:39:44.799Z,0.75
2022-09-21T12:42:25.750Z,1.27
2022-09-21T12:44:57.963Z,0.40
2022-09-21T12:47:38.202Z,0.40
2022-09-21T12:50:17.350Z,0.65
2022-09-21T12:52:46.081Z,0.70
2022-09-21T12:55:29.352Z,2.00
2022-09-21T12:58:15.207Z,0.13
2022-09-21T13:00:56.383Z,0.55
2022-09-21T13:03:33.105Z,0.93
2022-09-21T13:06:27.597Z,1.08
2022-09-21T13:08:56.260Z,0.32
2022-09-21T13:11:24.799Z,0.60
2022-09-21T13:13:59.344Z,1.52
2022-09-21T13:16:30.373Z,0.22
2022-09-21T13:19:01.744Z,2.35
2022-09-21T13:21:32.322Z,0.45
2022-09-21T13:24:02.184Z,0.82
2022-09-21T13:26:35.714Z,0.45
2022-09-21T13:29:36.526Z,1.00
2022-09-21T13:32:21.705Z,2.22
2022-09-21T13:34:51.539Z,0.40
2022-09-21T13:37:32.630Z,0.55
2022-09-21T13:40:43.555Z,2.67
2022-09-21T13:43:19.180Z,1.30
2022-09-21T13:45:54.313Z,0.55
2022-09-21T13:48:29.428Z,0.77
2022-09-21T13:51:07.727Z,0.47
2022-09-21T13:53:41.110Z,1.23
2022-09-21T13:56:17.466Z,0.43
2022-09-21T13:58:48.665Z,0.50
2022-09-21T14:01:45.188Z,1.37
2022-09-21T14:04:20.840Z,1.33
2022-09-21T14:06:54.339Z,2.22
2022-09-21T14:09:27.553Z,1.30
2022-09-21T14:11:59.129Z,0.70
2022-09-21T14:14:32.976Z,0.55
2022-09-21T14:17:01.701Z,0.30
2022-09-21T14:20:02.947Z,0.70
2022-09-21T14:23:10.322Z,2.40
2022-09-21T14:25:53.146Z,0.73
2022-09-21T14:28:34.810Z,1.58
2022-09-21T14:31:07.813Z,0.98
2022-09-21T14:33:45.196Z,0.52
2022-09-21T14:36:19.196Z,0.40
2022-09-21T14:38:54.824Z,0.22
2022-09-21T14:41:25.450Z,0.57
2022-09-21T14:43:56.523Z,1.02
2022-09-21T14:46:48.388Z,1.62
2022-09-21T14:49:32.855Z,1.90
2022-09-21T14:52:13.440Z,0.70
2022-09-21T14:54:58.201Z,0.40
2022-09-21T14:57:40.813Z,1.00
2022-09-21T15:00:23.308Z,1.95
2022-09-21T15:03:06.043Z,0.20
2022-09-21T15:05:38.678Z,0.30
2022-09-21T15:08:41.729Z,0.95
2022-09-21T15:11:18.804Z,0.30
2022-09-21T15:14:14.630Z,0.20
2022-09-21T15:16:47.078Z,0.22
2022-09-21T15:19:23.073Z,0.73
2022-09-21T15:21:53.040Z,0.20
2022-09-21T15:24:25.849Z,0.75
2022-09-21T15:27:02.920Z,1.10
2022-09-21T15:29:32.959Z,0.73
2022-09-21T15:32:02.217Z,0.68
2022-09-21T15:34:31.839Z,1.15
2022-09-21T15:37:17.085Z,3.58
2022-09-21T15:39:45.419Z,0.75
2022-09-21T15:42:23.106Z,0.30
2022-09-21T15:45:06.488Z,0.25
2022-09-21T15:47:35.198Z,1.27
2022-09-21T15:50:03.998Z,1.33
2022-09-21T15:52:37.851Z,2.42
2022-09-21T15:55:14.915Z,1.87
2022-09-21T15:57:45.125Z,1.75
2022-09-21T16:00:21.417Z,0.30
2022-09-21T16:03:04.252Z,0.52
2022-09-21T16:05:35.142Z,0.90
2022-09-21T16:08:10.142Z,0.68
2022-09-21T16:10:40.908Z,1.30
2022-09-21T16:13:36.603Z,0.47
2022-09-21T16:16:06.931Z,0.50
2022-09-21T16:18:43.245Z,1.20
2022-09-21T16:21:20.783Z,1.02
2022-09-21T16:23:50.140Z,0.43
2022-09-21T16:26:24.888Z,1.75
2022-09-21T16:29:19.106Z,2.25
2022-09-21T16:31:50.410Z,0.50
2022-09-21T16:34:33.006Z,0.37
2022-09-21T16:37:02.779Z,0.52
2022-09-21T16:39:30.987Z,3.50
2022-09-21T16:42:04.560Z,2.00
2022-09-21T16:44:44.485Z,3.20
2022-09-21T16:47:15.262Z,2.35
2022-09-21T16:49:44.351Z,2.17
2022-09-21T16:52:12.442Z,3.55
2022-09-21T16:54:40.317Z,1.60
2022-09-21T16:57:08.510Z,1.30
2022-09-21T16:59:37.748Z,1.73
2022-09-21T17:02:05.954Z,2.33
2022-09-21T17:04:35.694Z,1.33
2022-09-21T17:07:05.906Z,1.25
2022-09-21T17:09:35.837Z,0.70
2022-09-21T17:12:06.913Z,0.80
2022-09-21T17:14:42.964Z,1.65
2022-09-21T17:17:18.136Z,2.03
2022-09-21T17:19:46.914Z,0.57
2022-09-21T17:22:17.396Z,0.70
2022-09-21T17:24:50.842Z,0.80
2022-09-21T17:27:21.235Z,1.23
2022-09-21T17:29:51.062Z,0.70
2022-09-21T17:32:21.187Z,0.62
2022-09-21T17:34:56.460Z,0.95
2022-09-21T17:37:26.013Z,0.70
2022-09-21T17:39:54.567Z,1.67
2022-09-21T17:42:25.724Z,0.60
2022-09-21T17:45:05.200Z,1.50
2022-09-21T17:47:34.047Z,0.95
2022-09-21T17:50:15.619Z,1.20
2022-09-21T17:53:02.585Z,1.98
2022-09-21T17:55:32.017Z,1.85
2022-09-21T17:58:18.650Z,0.80
2022-09-21T18:00:57.089Z,0.82
2022-09-21T18:03:28.080Z,3.95
2022-09-21T18:06:00.772Z,1.05
2022-09-21T18:08:30.317Z,2.95
2022-09-21T18:11:26.186Z,1.17
2022-09-21T18:14:02.841Z,1.35
2022-09-21T18:16:37.471Z,1.05
2022-09-21T18:19:21.291Z,2.17
2022-09-21T18:21:52.627Z,1.48
2022-09-21T18:24:23.908Z,1.45
2022-09-21T18:26:54.179Z,3.33
2022-09-21T18:29:39.508Z,2.22
2022-09-21T18:32:32.225Z,2.42
2022-09-21T18:35:15.038Z,3.62
2022-09-21T18:37:53.540Z,2.05
2022-09-21T18:40:29.198Z,4.37
2022-09-21T18:43:04.957Z,3.72
2022-09-21T18:45:38.947Z,2.97
2022-09-21T18:48:21.421Z,4.55
2022-09-21T18:50:59.707Z,3.12
2022-09-21T18:53:33.910Z,3.55
2022-09-21T18:56:02.669Z,5.37
2022-09-21T18:58:31.158Z,3.78
2022-09-21T19:01:00.263Z,4.50
2022-09-21T19:03:30.661Z,4.07
2022-09-21T19:06:22.250Z,3.85
2022-09-21T19:08:56.358Z,7.93
2022-09-21T19:11:34.721Z,8.82
2022-09-21T19:14:12.048Z,8.98
2022-09-21T19:16:46.355Z,7.25
2022-09-21T19:19:28.338Z,7.72
2022-09-21T19:22:03.771Z,6.65
2022-09-21T19:24:37.927Z,7.90
2022-09-21T19:27:17.251Z,7.07
2022-09-21T19:29:54.535Z,4.25
2022-09-21T19:32:39.548Z,14.23
2022-09-21T19:35:22.152Z,6.78
2022-09-21T19:37:51.918Z,28.27
2022-09-21T19:40:23.482Z,19.58
2022-09-21T19:43:21.016Z,20.17
2022-09-21T19:46:11.938Z,14.85
2022-09-21T19:48:43.660Z,15.23
2022-09-21T19:51:20.146Z,13.55
2022-09-21T19:54:13.360Z,9.02
2022-09-21T19:57:04.610Z,6.65
2022-09-21T19:59:45.021Z,7.95
2022-09-21T20:02:15.593Z,9.02
2022-09-21T20:04:50.101Z,16.83
2022-09-21T20:07:26.771Z,11.80
2022-09-21T20:10:08.356Z,7.00
2022-09-21T20:12:43.915Z,7.55
2022-09-21T20:15:16.994Z,7.72
2022-09-21T20:17:50.916Z,5.15
2022-09-21T20:20:22.710Z,1.95
2022-09-21T20:22:52.726Z,6.03
2022-09-21T20:25:25.916Z,3.12
2022-09-21T20:27:56.218Z,7.07
2022-09-21T20:30:27.018Z,7.90
2022-09-21T20:32:57.582Z,2.70
2022-09-21T20:35:28.056Z,4.97
2022-09-21T20:38:01.959Z,2.45
2022-09-21T20:40:32.323Z,8.43
2022-09-21T20:43:01.655Z,10.45
2022-09-21T20:45:31.403Z,2.80
2022-09-21T20:48:12.980Z,3.17
2022-09-21T20:50:42.196Z,2.22
2022-09-21T20:53:12.616Z,1.00
2022-09-21T20:55:41.226Z,3.97
2022-09-21T20:58:12.548Z,1.87
2022-09-21T21:00:41.113Z,1.45
2022-09-21T21:03:09.004Z,1.12
2022-09-21T21:05:37.168Z,1.80
2022-09-21T21:08:05.655Z,1.20
2022-09-21T21:10:34.911Z,3.22
2022-09-21T21:13:03.036Z,1.05
2022-09-21T21:15:32.006Z,1.35
2022-09-21T21:17:59.908Z,2.28
2022-09-21T21:20:29.019Z,1.27
2022-09-21T21:22:57.199Z,1.00
2022-09-21T21:25:25.112Z,0.80
2022-09-21T21:27:57.381Z,1.08
2022-09-21T21:30:25.558Z,1.02
2022-09-21T21:32:53.591Z,1.33
2022-09-21T21:35:21.531Z,1.00
2022-09-21T21:37:49.699Z,1.60
2022-09-21T21:40:17.883Z,0.88
2022-09-21T21:42:45.865Z,1.05
2022-09-21T21:45:15.421Z,2.65
2022-09-21T21:47:43.392Z,1.75
2022-09-21T21:50:12.007Z,1.37
2022-09-21T21:52:40.625Z,2.53
2022-09-21T21:55:10.117Z,1.58
2022-09-21T21:57:38.062Z,1.12
2022-09-21T22:00:08.571Z,1.37
2022-09-21T22:02:37.773Z,1.37
2022-09-21T22:05:06.694Z,1.48
2022-09-21T22:07:34.668Z,3.08
2022-09-21T22:10:03.047Z,1.40
2022-09-21T22:12:31.656Z,1.52
2022-09-21T22:14:59.499Z,0.60
2022-09-21T22:17:27.368Z,1.45
2022-09-21T22:19:56.826Z,1.27
2022-09-21T22:22:25.360Z,1.12
2022-09-21T22:24:53.240Z,2.53
2022-09-21T22:27:21.563Z,4.50
2022-09-21T22:29:49.489Z,1.10
2022-09-21T22:32:17.380Z,1.00
2022-09-21T22:34:45.471Z,1.73
2022-09-21T22:37:14.756Z,1.02
2022-09-21T22:39:42.904Z,0.95
2022-09-21T22:42:11.534Z,1.17
2022-09-21T22:44:39.420Z,2.90
2022-09-21T22:47:07.480Z,1.08
2022-09-21T22:49:35.567Z,0.73
2022-09-21T22:52:03.509Z,1.40
2022-09-21T22:54:32.791Z,2.75
2022-09-21T22:57:00.994Z,0.90
2022-09-21T22:59:28.975Z,1.67
2022-09-21T23:01:56.859Z,1.52
2022-09-21T23:04:24.979Z,0.73
2022-09-21T23:06:53.020Z,1.10
2022-09-21T23:09:22.341Z,1.10
2022-09-21T23:11:53.883Z,0.93
2022-09-21T23:14:23.103Z,1.52
2022-09-21T23:16:51.495Z,1.17
2022-09-21T23:19:19.331Z,0.88
2022-09-21T23:21:50.311Z,1.58
2022-09-21T23:24:19.487Z,2.20
2022-09-21T23:26:50.407Z,1.35
2022-09-21T23:29:20.051Z,1.30
2022-09-21T23:31:48.271Z,3.28
2022-09-21T23:34:16.981Z,1.23
2022-09-21T23:36:46.058Z,1.42
2022-09-21T23:39:15.917Z,3.75
2022-09-21T23:41:44.663Z,4.32
2022-09-21T23:44:13.253Z,2.55
2022-09-21T23:46:42.925Z,1.83
2022-09-21T23:49:11.349Z,5.00
2022-09-21T23:51:39.985Z,3.72
2022-09-21T23:54:08.530Z,6.15
2022-09-21T23:56:36.668Z,5.45
2022-09-21T23:59:05.467Z,1.80
